| time (UTC) | temp C | wind direction | speed KPH | gust KPH | rain 1hr cm | rain 24hr cm | rain mn cm | humidity % | barometer mb |
| 20260510011550 | 12 | 93 | 0.0 | 0.0 | 0.00 | 0.46 | 0.46 | 93 | 1009.9 |
| 20260510011052 | 12 | 116 | 0.0 | 0.0 | 0.00 | 0.46 | 0.46 | 92 | 1009.7 |
| 20260510010546 | 12 | 105 | 0.0 | 0.0 | 0.00 | 0.46 | 0.46 | 91 | 1009.6 |
| 20260510010042 | 12 | 103 | 0.0 | 0.0 | 0.00 | 0.46 | 0.46 | 91 | 1009.4 |
| 20260510005541 | 12 | 92 | 0.0 | 0.0 | 0.00 | 0.46 | 0.46 | 90 | 1009.3 |
| 20260510005042 | 12 | 85 | 0.0 | 0.0 | 0.00 | 0.46 | 0.46 | 89 | 1009.4 |
| 20260510004539 | 13 | 82 | 0.0 | 0.0 | 0.00 | 0.46 | 0.46 | 89 | 1009.4 |
| 20260510004039 | 13 | 67 | 0.0 | 0.0 | 0.00 | 0.46 | 0.46 | 88 | 1009.5 |
| 20260510003539 | 13 | 105 | 0.0 | 0.0 | 0.00 | 0.46 | 0.46 | 87 | 1009.6 |
| 20260510003040 | 13 | 113 | 0.0 | 0.0 | 0.00 | 0.46 | 0.46 | 87 | 1009.4 |
| 20260510002534 | 13 | 113 | 0.0 | 0.0 | 0.00 | 0.46 | 0.46 | 86 | 1009.4 |
| 20260510002307 | 14 | 113 | 0.0 | 0.0 | 0.00 | 0.46 | 0.46 | 86 | 1009.3 |
| 20260510001534 | 14 | 113 | 0.0 | 0.0 | 0.00 | 0.46 | 0.46 | 85 | 1009.2 |
| 20260510001036 | 15 | 105 | 0.0 | 0.0 | 0.00 | 0.46 | 0.46 | 85 | 1009.1 |
| 20260510000536 | 15 | 119 | 0.0 | 0.0 | 0.00 | 0.46 | 0.46 | 85 | 1009.1 |
| 20260510000307 | 15 | 111 | 0.0 | 0.0 | 0.00 | 0.46 | 0.46 | 84 | 1009.0 |
| 20260509235532 | 15 | 115 | 0.0 | 0.0 | 0.00 | 0.46 | 0.46 | 84 | 1009.0 |
| 20260509235306 | 15 | 147 | 0.0 | 0.0 | 0.00 | 0.46 | 0.46 | 83 | 1009.1 |
| 20260509234531 | 15 | 136 | 0.0 | 0.0 | 0.00 | 0.46 | 0.46 | 83 | 1009.0 |
| 20260509234301 | 15 | 125 | 0.0 | 0.0 | 0.00 | 0.46 | 0.46 | 83 | 1009.1 |
| 20260509233530 | 15 | 138 | 0.0 | 0.0 | 0.00 | 0.46 | 0.46 | 82 | 1009.1 |
| 20260509233034 | 15 | 121 | 0.0 | 0.0 | 0.00 | 0.46 | 0.46 | 82 | 1009.0 |
| 20260509233028 | 16 | 153 | 0.0 | 0.0 | 0.00 | 0.46 | 0.46 | 82 | 1009.0 |
| 20260509232028 | 16 | 128 | 0.0 | 0.0 | 0.00 | 0.46 | 0.46 | 82 | 1008.9 |
| 20260509231526 | 16 | 104 | 0.0 | 0.0 | 0.00 | 0.46 | 0.46 | 82 | 1008.9 |
| 20260509231026 | 16 | 126 | 0.0 | 0.0 | 0.00 | 0.46 | 0.46 | 82 | 1008.8 |
| 20260509230527 | 16 | 113 | 0.0 | 8.0 | 0.00 | 0.46 | 0.46 | 81 | 1008.9 |
| 20260509230258 | 16 | 117 | 0.0 | 8.0 | 0.00 | 0.46 | 0.46 | 81 | 1009.0 |
| 20260509225521 | 16 | 121 | 1.6 | 14.5 | 0.00 | 0.46 | 0.46 | 81 | 1008.9 |
| 20260509225020 | 16 | 138 | 1.6 | 14.5 | 0.00 | 0.46 | 0.46 | 80 | 1009.0 |
| 20260509224520 | 16 | 124 | 0.0 | 0.0 | 0.00 | 0.46 | 0.46 | 80 | 1009.0 |
| 20260509224250 | 16 | 116 | 3.2 | 14.5 | 0.00 | 0.46 | 0.46 | 80 | 1008.8 |
| 20260509223519 | 16 | 123 | 4.8 | 14.5 | 0.00 | 0.46 | 0.46 | 80 | 1008.8 |
| 20260509223019 | 16 | 148 | 1.6 | 14.5 | 0.00 | 0.46 | 0.46 | 79 | 1008.8 |
| 20260509222512 | 16 | 209 | 0.0 | 9.7 | 0.00 | 0.46 | 0.46 | 79 | 1009.0 |
| 20260509222243 | 16 | 200 | 0.0 | 9.7 | 0.00 | 0.46 | 0.46 | 80 | 1008.9 |
| 20260509221513 | 16 | 167 | 3.2 | 14.5 | 0.00 | 0.46 | 0.46 | 80 | 1008.8 |
| 20260509221013 | 16 | 175 | 3.2 | 14.5 | 0.00 | 0.46 | 0.46 | 79 | 1008.8 |
| 20260509220513 | 16 | 166 | 1.6 | 12.9 | 0.00 | 0.46 | 0.46 | 80 | 1008.8 |
| 20260509220013 | 16 | 215 | 1.6 | 12.9 | 0.00 | 0.46 | 0.46 | 79 | 1008.9 |
| 20260509215508 | 16 | 136 | 0.0 | 4.8 | 0.00 | 0.46 | 0.46 | 80 | 1009.0 |
| 20260509215007 | 16 | 207 | 0.0 | 3.2 | 0.00 | 0.46 | 0.46 | 81 | 1009.0 |
| 20260509214508 | 16 | 203 | 0.0 | 0.0 | 0.00 | 0.46 | 0.46 | 83 | 1009.1 |
| 20260509214007 | 16 | 159 | 0.0 | 0.0 | 0.00 | 0.46 | 0.46 | 84 | 1009.0 |
| 20260509213506 | 16 | 110 | 0.0 | 0.0 | 0.00 | 0.46 | 0.46 | 85 | 1009.2 |
| 20260509213006 | 15 | 97 | 0.0 | 0.0 | 0.00 | 0.46 | 0.46 | 87 | 1009.2 |
| 20260509213001 | 15 | 115 | 0.0 | 0.0 | 0.00 | 0.46 | 0.46 | 86 | 1009.4 |
| 20260509211959 | 15 | 120 | 0.0 | 0.0 | 0.00 | 0.46 | 0.46 | 87 | 1009.3 |
| 20260509211501 | 15 | 130 | 0.0 | 0.0 | 0.00 | 0.46 | 0.46 | 87 | 1009.2 |
| 20260509210959 | 15 | 87 | 0.0 | 0.0 | 0.00 | 0.46 | 0.46 | 88 | 1009.4 |
| 20260509210459 | 15 | 98 | 0.0 | 0.0 | 0.00 | 0.46 | 0.46 | 88 | 1009.5 |
| 20260509205958 | 15 | 59 | 0.0 | 0.0 | 0.00 | 0.46 | 0.46 | 89 | 1009.6 |
| 20260509205453 | 14 | 350 | 0.0 | 0.0 | 0.00 | 0.46 | 0.46 | 89 | 1009.8 |
| 20260509205224 | 14 | 350 | 0.0 | 0.0 | 0.00 | 0.46 | 0.46 | 90 | 1009.8 |
| 20260509204449 | 14 | 350 | 0.0 | 0.0 | 0.00 | 0.46 | 0.46 | 90 | 1009.8 |
| 20260509203947 | 14 | 329 | 0.0 | 0.0 | 0.00 | 0.46 | 0.46 | 90 | 1009.9 |
| 20260509203446 | 14 | 327 | 0.0 | 0.0 | 0.00 | 0.46 | 0.46 | 89 | 1009.9 |
| 20260509202944 | 14 | 0 | 0.0 | 0.0 | 0.00 | 0.46 | 0.46 | 89 | 1010.0 |
| 20260509202442 | 14 | 27 | 0.0 | 0.0 | 0.00 | 0.46 | 0.46 | 89 | 1009.8 |
| 20260509201942 | 14 | 51 | 0.0 | 0.0 | 0.00 | 0.46 | 0.46 | 89 | 1009.6 |
| 20260509201714 | 14 | 46 | 0.0 | 0.0 | 0.00 | 0.46 | 0.46 | 89 | 1009.4 |
| 20260509200942 | 14 | 68 | 0.0 | 0.0 | 0.00 | 0.46 | 0.46 | 89 | 1009.4 |
| 20260509200442 | 14 | 71 | 0.0 | 0.0 | 0.00 | 0.46 | 0.46 | 87 | 1009.7 |
| 20260509195936 | 14 | 74 | 0.0 | 0.0 | 0.00 | 0.46 | 0.46 | 86 | 1009.9 |
| 20260509195703 | 14 | 109 | 0.0 | 0.0 | 0.00 | 0.46 | 0.46 | 86 | 1010.0 |
| 20260509195202 | 14 | 115 | 0.0 | 0.0 | 0.00 | 0.46 | 0.46 | 86 | 1010.0 |
| 20260509194430 | 15 | 171 | 0.0 | 0.0 | 0.00 | 0.46 | 0.46 | 86 | 1009.9 |
| 20260509193930 | 14 | 171 | 0.0 | 0.0 | 0.00 | 0.46 | 0.46 | 86 | 1009.9 |
| 20260509193422 | 14 | 171 | 0.0 | 0.0 | 0.00 | 0.46 | 0.46 | 86 | 1009.9 |
| 20260509192920 | 15 | 169 | 0.0 | 0.0 | 0.00 | 0.46 | 0.46 | 86 | 1010.0 |
| 20260509192419 | 15 | 101 | 0.0 | 0.0 | 0.00 | 0.46 | 0.46 | 87 | 1010.1 |
| 20260509191917 | 15 | 83 | 0.0 | 0.0 | 0.00 | 0.46 | 0.46 | 90 | 1010.1 |
| 20260509191418 | 14 | 101 | 0.0 | 4.8 | 0.00 | 0.46 | 0.46 | 90 | 1010.3 |
| 20260509190910 | 14 | 182 | 0.0 | 4.8 | 0.00 | 0.46 | 0.46 | 91 | 1010.5 |
| 20260509190411 | 14 | 187 | 0.0 | 0.0 | 0.00 | 0.46 | 0.46 | 92 | 1010.6 |
| 20260509185911 | 13 | 134 | 0.0 | 0.0 | 0.00 | 0.46 | 0.46 | 92 | 1010.6 |
| 20260509185411 | 13 | 115 | 0.0 | 9.7 | 0.00 | 0.46 | 0.46 | 92 | 1010.8 |
| 20260509184911 | 13 | 161 | 0.0 | 9.7 | 0.00 | 0.46 | 0.46 | 92 | 1010.8 |
| 20260509184642 | 13 | 160 | 0.0 | 9.7 | 0.00 | 0.46 | 0.46 | 92 | 1010.6 |
| 20260509183909 | 13 | 131 | 0.0 | 9.7 | 0.00 | 0.46 | 0.46 | 94 | 1010.4 |
| 20260509183408 | 13 | 181 | 1.6 | 12.9 | 0.00 | 0.46 | 0.46 | 94 | 1010.4 |
| 20260509182909 | 13 | 168 | 1.6 | 12.9 | 0.00 | 0.46 | 0.46 | 94 | 1010.4 |
| 20260509182407 | 13 | 104 | 0.0 | 0.0 | 0.00 | 0.46 | 0.46 | 95 | 1010.4 |
| 20260509181905 | 13 | 73 | 0.0 | 0.0 | 0.00 | 0.46 | 0.46 | 96 | 1010.4 |
| 20260509181405 | 12 | 87 | 0.0 | 0.0 | 0.00 | 0.46 | 0.46 | 96 | 1010.4 |
| 20260509180902 | 12 | 119 | 0.0 | 0.0 | 0.00 | 0.46 | 0.46 | 96 | 1010.5 |
| 20260509180631 | 12 | 111 | 0.0 | 0.0 | 0.00 | 0.46 | 0.46 | 96 | 1010.5 |
| 20260509175859 | 12 | 96 | 0.0 | 0.0 | 0.00 | 0.46 | 0.46 | 96 | 1010.6 |
| 20260509175630 | 12 | 212 | 0.0 | 0.0 | 0.00 | 0.46 | 0.46 | 95 | 1010.8 |
| 20260509174859 | 12 | 240 | 0.0 | 0.0 | 0.00 | 0.46 | 0.46 | 96 | 1010.8 |
| 20260509174400 | 12 | 221 | 0.0 | 0.0 | 0.00 | 0.46 | 0.46 | 97 | 1010.9 |
| 20260509173852 | 12 | 159 | 0.0 | 0.0 | 0.00 | 0.46 | 0.46 | 96 | 1010.9 |
| 20260509173351 | 12 | 159 | 0.0 | 0.0 | 0.03 | 0.46 | 0.46 | 97 | 1011.0 |
| 20260509173119 | 12 | 159 | 0.0 | 0.0 | 0.03 | 0.46 | 0.46 | 96 | 1010.9 |
| 20260509172347 | 12 | 119 | 0.0 | 0.0 | 0.03 | 0.46 | 0.46 | 96 | 1011.1 |
| 20260509171848 | 12 | 125 | 0.0 | 0.0 | 0.03 | 0.46 | 0.46 | 96 | 1011.2 |
| 20260509171345 | 11 | 139 | 0.0 | 0.0 | 0.05 | 0.46 | 0.46 | 96 | 1011.2 |
| 20260509171341 | 12 | 127 | 0.0 | 0.0 | 0.05 | 0.46 | 0.46 | 97 | 1011.2 |
| 20260509170343 | 11 | 126 | 0.0 | 0.0 | 0.08 | 0.46 | 0.46 | 97 | 1011.3 |
| 20260509165843 | 11 | 134 | 0.0 | 0.0 | 0.08 | 0.46 | 0.46 | 96 | 1011.1 |
| 20260509165340 | 11 | 150 | 0.0 | 0.0 | 0.10 | 0.46 | 0.46 | 96 | 1011.0 |
| 20260509164841 | 11 | 143 | 0.0 | 0.0 | 0.15 | 0.46 | 0.46 | 96 | 1011.0 |
| 20260509164338 | 11 | 120 | 0.0 | 0.0 | 0.18 | 0.46 | 0.46 | 96 | 1010.9 |
| 20260509163838 | 11 | 112 | 0.0 | 0.0 | 0.20 | 0.46 | 0.46 | 95 | 1010.8 |
| 20260509163338 | 11 | 132 | 0.0 | 0.0 | 0.23 | 0.43 | 0.43 | 96 | 1010.8 |
| 20260509162836 | 11 | 148 | 0.0 | 0.0 | 0.25 | 0.43 | 0.43 | 96 | 1010.6 |
| 20260509162335 | 11 | 78 | 0.0 | 0.0 | 0.30 | 0.43 | 0.43 | 95 | 1010.5 |
| 20260509162105 | 11 | 52 | 0.0 | 0.0 | 0.33 | 0.43 | 0.43 | 95 | 1010.4 |
| 20260509161332 | 11 | 0 | 0.0 | 0.0 | 0.30 | 0.41 | 0.41 | 95 | 1010.5 |
| 20260509160831 | 11 | 37 | 0.0 | 0.0 | 0.33 | 0.41 | 0.41 | 95 | 1010.8 |
| 20260509160601 | 11 | 5 | 0.0 | 0.0 | 0.30 | 0.38 | 0.38 | 94 | 1010.8 |
| 20260509155329 | 11 | 229 | 0.0 | 0.0 | 0.30 | 0.36 | 0.36 | 94 | 1011.4 |
| 20260509154830 | 11 | 197 | 0.0 | 0.0 | 0.28 | 0.30 | 0.33 | 94 | 1011.6 |
| 20260509154322 | 11 | 197 | 0.0 | 0.0 | 0.28 | 0.28 | 0.28 | 94 | 1011.6 |
| 20260509153819 | 11 | 203 | 0.0 | 0.0 | 0.25 | 0.25 | 0.25 | 93 | 1011.9 |
| 20260509153318 | 11 | 224 | 0.0 | 8.0 | 0.20 | 0.20 | 0.20 | 93 | 1012.0 |
| 20260509152817 | 11 | 223 | 0.0 | 8.0 | 0.15 | 0.15 | 0.18 | 93 | 1012.0 |
| 20260509152318 | 12 | 179 | 0.0 | 0.0 | 0.13 | 0.13 | 0.13 | 92 | 1012.0 |
| 20260509151809 | 12 | 163 | 0.0 | 0.0 | 0.10 | 0.10 | 0.10 | 92 | 1011.8 |
| 20260509151315 | 12 | 163 | 0.0 | 0.0 | 0.08 | 0.08 | 0.08 | 92 | 1011.8 |
| 20260509151310 | 12 | 125 | 0.0 | 0.0 | 0.10 | 0.10 | 0.10 | 92 | 1011.7 |
| 20260509150541 | 12 | 158 | 0.0 | 0.0 | 0.08 | 0.08 | 0.08 | 91 | 1011.8 |
| 20260509145810 | 12 | 145 | 0.0 | 0.0 | 0.05 | 0.05 | 0.05 | 91 | 1011.6 |
| 20260509145310 | 12 | 124 | 0.0 | 0.0 | 0.05 | 0.05 | 0.05 | 91 | 1011.6 |
| 20260509144804 | 12 | 157 | 0.0 | 0.0 | 0.03 | 0.03 | 0.03 | 91 | 1011.6 |
| 20260509144302 | 12 | 194 | 0.0 | 0.0 | 0.00 | 0.00 | 0.00 | 90 | 1011.6 |
| 20260509143801 | 12 | 211 | 0.0 | 0.0 | 0.00 | 0.00 | 0.00 | 90 | 1011.5 |
| 20260509143259 | 12 | 208 | 0.0 | 0.0 | 0.00 | 0.00 | 0.00 | 90 | 1011.5 |
| 20260509143029 | 12 | 225 | 0.0 | 0.0 | 0.00 | 0.00 | 0.00 | 90 | 1011.4 |
| 20260509142256 | 12 | 198 | 0.0 | 0.0 | 0.00 | 0.00 | 0.00 | 91 | 1011.4 |
| 20260509141755 | 12 | 182 | 0.0 | 0.0 | 0.00 | 0.00 | 0.00 | 91 | 1011.4 |
| 20260509141257 | 12 | 136 | 0.0 | 0.0 | 0.00 | 0.00 | 0.00 | 91 | 1011.3 |
| 20260509140755 | 11 | 136 | 0.0 | 0.0 | 0.00 | 0.00 | 0.00 | 91 | 1011.3 |
| 20260509140252 | 11 | 136 | 0.0 | 0.0 | 0.00 | 0.00 | 0.00 | 91 | 1011.2 |
| 20260509135753 | 11 | 140 | 0.0 | 0.0 | 0.00 | 0.00 | 0.00 | 91 | 1011.3 |
| 20260509135519 | 11 | 133 | 0.0 | 0.0 | 0.00 | 0.00 | 0.00 | 91 | 1011.2 |
| 20260509134746 | 11 | 131 | 0.0 | 0.0 | 0.00 | 0.00 | 0.00 | 91 | 1011.1 |
| 20260509134245 | 11 | 132 | 0.0 | 0.0 | 0.00 | 0.00 | 0.00 | 91 | 1011.1 |
| 20260509133744 | 11 | 132 | 0.0 | 0.0 | 0.00 | 0.00 | 0.00 | 91 | 1011.2 |
| 20260509133241 | 11 | 121 | 0.0 | 0.0 | 0.00 | 0.00 | 0.00 | 90 | 1011.2 |
| 20260509133011 | 11 | 101 | 0.0 | 0.0 | 0.00 | 0.00 | 0.00 | 90 | 1011.1 |
| 20260509132240 | 11 | 85 | 0.0 | 0.0 | 0.00 | 0.00 | 0.00 | 91 | 1011.1 |
| 20260509131741 | 11 | 119 | 0.0 | 0.0 | 0.00 | 0.00 | 0.00 | 91 | 1011.2 |
| 20260509131235 | 11 | 67 | 0.0 | 0.0 | 0.00 | 0.00 | 0.00 | 91 | 1010.6 |
| 20260509131007 | 11 | 42 | 0.0 | 0.0 | 0.00 | 0.00 | 0.00 | 90 | 1010.5 |
| 20260509130235 | 11 | 62 | 0.0 | 0.0 | 0.00 | 0.00 | 0.00 | 90 | 1010.8 |
| 20260509125735 | 11 | 102 | 0.0 | 0.0 | 0.00 | 0.00 | 0.00 | 89 | 1010.9 |
| 20260509125507 | 11 | 41 | 0.0 | 0.0 | 0.00 | 0.00 | 0.00 | 89 | 1010.9 |
| 20260509125007 | 11 | 43 | 0.0 | 0.0 | 0.00 | 0.00 | 0.00 | 88 | 1010.6 |
| 20260509124231 | 11 | 25 | 0.0 | 0.0 | 0.00 | 0.00 | 0.00 | 89 | 1010.9 |
| 20260509123732 | 11 | 19 | 0.0 | 0.0 | 0.00 | 0.00 | 0.00 | 89 | 1011.0 |
| 20260509123233 | 11 | 298 | 0.0 | 0.0 | 0.00 | 0.00 | 0.00 | 89 | 1011.1 |
| 20260509122732 | 11 | 333 | 0.0 | 0.0 | 0.00 | 0.00 | 0.00 | 90 | 1011.0 |
| 20260509122231 | 11 | 333 | 0.0 | 0.0 | 0.00 | 0.00 | 0.00 | 90 | 1011.0 |
| 20260509121733 | 11 | 10 | 0.0 | 0.0 | 0.00 | 0.00 | 0.00 | 89 | 1010.8 |
| 20260509121228 | 11 | 134 | 0.0 | 0.0 | 0.00 | 0.00 | 0.00 | 89 | 1011.0 |
| 20260509121000 | 11 | 59 | 0.0 | 0.0 | 0.00 | 0.00 | 0.00 | 89 | 1010.6 |
| 20260509120459 | 11 | 165 | 0.0 | 0.0 | 0.00 | 0.00 | 0.00 | 89 | 1010.9 |
| 20260509115959 | 10 | 355 | 0.0 | 0.0 | 0.00 | 0.00 | 0.00 | 89 | 1010.6 |
| 20260509115227 | 10 | 339 | 0.0 | 0.0 | 0.00 | 0.00 | 0.00 | 89 | 1010.8 |
| 20260509114729 | 10 | 26 | 0.0 | 0.0 | 0.00 | 0.00 | 0.00 | 89 | 1010.4 |
| 20260509114223 | 10 | 37 | 0.0 | 0.0 | 0.00 | 0.00 | 0.00 | 89 | 1010.4 |
| 20260509113722 | 10 | 39 | 0.0 | 0.0 | 0.00 | 0.00 | 0.00 | 90 | 1010.6 |
| 20260509113223 | 10 | 61 | 0.0 | 0.0 | 0.00 | 0.00 | 0.00 | 91 | 1010.5 |
| 20260509112719 | 10 | 61 | 0.0 | 0.0 | 0.00 | 0.00 | 0.00 | 90 | 1010.5 |
| 20260509112218 | 10 | 67 | 0.0 | 0.0 | 0.00 | 0.00 | 0.00 | 91 | 1010.6 |
| 20260509111716 | 10 | 67 | 0.0 | 0.0 | 0.00 | 0.00 | 0.00 | 91 | 1010.6 |
| 20260509111216 | 10 | 72 | 0.0 | 0.0 | 0.00 | 0.00 | 0.00 | 91 | 1010.4 |
| 20260509110716 | 10 | 76 | 0.0 | 0.0 | 0.00 | 0.00 | 0.00 | 91 | 1010.3 |
| 20260509110216 | 10 | 98 | 0.0 | 0.0 | 0.00 | 0.00 | 0.00 | 91 | 1010.5 |
| 20260509105711 | 10 | 83 | 0.0 | 0.0 | 0.00 | 0.00 | 0.00 | 91 | 1010.4 |
| 20260509105212 | 10 | 82 | 0.0 | 0.0 | 0.00 | 0.00 | 0.00 | 91 | 1010.4 |
| 20260509104712 | 10 | 40 | 0.0 | 0.0 | 0.00 | 0.00 | 0.00 | 91 | 1010.4 |
| 20260509104213 | 10 | 92 | 0.0 | 0.0 | 0.00 | 0.00 | 0.00 | 90 | 1010.5 |
| 20260509103710 | 10 | 64 | 0.0 | 0.0 | 0.00 | 0.00 | 0.00 | 90 | 1010.2 |
| 20260509103210 | 10 | 0 | 0.0 | 0.0 | 0.00 | 0.00 | 0.00 | 89 | 1010.3 |
| 20260509102708 | 10 | 59 | 0.0 | 0.0 | 0.00 | 0.00 | 0.00 | 88 | 1010.1 |
| 20260509102435 | 10 | 346 | 0.0 | 0.0 | 0.00 | 0.00 | 0.00 | 88 | 1010.3 |
| 20260509101704 | 10 | 14 | 0.0 | 0.0 | 0.00 | 0.00 | 0.00 | 87 | 1010.2 |
| 20260509101204 | 10 | 44 | 0.0 | 0.0 | 0.00 | 0.00 | 0.00 | 87 | 1010.1 |
| 20260509100704 | 10 | 14 | 0.0 | 0.0 | 0.00 | 0.00 | 0.00 | 87 | 1010.1 |
| 20260509100437 | 10 | 27 | 0.0 | 0.0 | 0.00 | 0.00 | 0.00 | 86 | 1010.2 |
| 20260509095701 | 10 | 5 | 0.0 | 0.0 | 0.00 | 0.00 | 0.00 | 86 | 1010.0 |
| 20260509095201 | 10 | 355 | 0.0 | 0.0 | 0.00 | 0.00 | 0.00 | 86 | 1010.0 |
| 20260509094659 | 10 | 32 | 0.0 | 0.0 | 0.00 | 0.00 | 0.00 | 87 | 1010.0 |
| 20260509094158 | 10 | 37 | 0.0 | 0.0 | 0.00 | 0.00 | 0.00 | 88 | 1010.1 |
| 20260509093659 | 10 | 26 | 0.0 | 0.0 | 0.00 | 0.00 | 0.00 | 89 | 1010.3 |
| 20260509093157 | 10 | 36 | 0.0 | 0.0 | 0.00 | 0.00 | 0.00 | 90 | 1010.4 |
| 20260509092652 | 10 | 63 | 0.0 | 0.0 | 0.00 | 0.00 | 0.00 | 89 | 1010.5 |
| 20260509092150 | 10 | 63 | 0.0 | 0.0 | 0.00 | 0.00 | 0.00 | 88 | 1010.3 |
| 20260509091648 | 10 | 57 | 0.0 | 0.0 | 0.00 | 0.00 | 0.00 | 88 | 1010.2 |
| 20260509091147 | 10 | 47 | 0.0 | 0.0 | 0.00 | 0.00 | 0.00 | 88 | 1010.2 |
| 20260509090645 | 10 | 65 | 0.0 | 0.0 | 0.00 | 0.00 | 0.00 | 88 | 1010.2 |
| 20260509090143 | 10 | 71 | 0.0 | 0.0 | 0.00 | 0.00 | 0.00 | 88 | 1010.4 |
| 20260509085642 | 10 | 66 | 0.0 | 0.0 | 0.00 | 0.00 | 0.00 | 88 | 1010.3 |
| 20260509085141 | 10 | 53 | 0.0 | 0.0 | 0.00 | 0.00 | 0.00 | 88 | 1010.4 |
| 20260509084913 | 10 | 49 | 0.0 | 0.0 | 0.00 | 0.00 | 0.00 | 88 | 1010.4 |
| 20260509084141 | 10 | 81 | 0.0 | 0.0 | 0.00 | 0.00 | 0.00 | 87 | 1010.5 |
| 20260509083639 | 10 | 72 | 0.0 | 0.0 | 0.00 | 0.00 | 0.00 | 87 | 1010.4 |
| 20260509083134 | 10 | 57 | 0.0 | 0.0 | 0.00 | 0.00 | 0.00 | 87 | 1010.4 |
| 20260509082633 | 10 | 59 | 0.0 | 0.0 | 0.00 | 0.00 | 0.00 | 87 | 1010.5 |
| 20260509082133 | 10 | 90 | 0.0 | 0.0 | 0.00 | 0.00 | 0.00 | 87 | 1010.5 |
| 20260509081635 | 10 | 79 | 0.0 | 0.0 | 0.00 | 0.00 | 0.00 | 87 | 1010.4 |
| 20260509081134 | 10 | 76 | 0.0 | 0.0 | 0.00 | 0.00 | 0.00 | 86 | 1010.6 |
| 20260509080635 | 10 | 67 | 0.0 | 0.0 | 0.00 | 0.00 | 0.00 | 86 | 1010.8 |
| 20260509080128 | 10 | 51 | 0.0 | 0.0 | 0.00 | 0.00 | 0.00 | 87 | 1010.8 |
| 20260509075628 | 10 | 44 | 0.0 | 0.0 | 0.00 | 0.00 | 0.00 | 87 | 1010.9 |
| 20260509075128 | 10 | 63 | 0.0 | 0.0 | 0.00 | 0.00 | 0.00 | 88 | 1010.9 |
| 20260509074628 | 10 | 72 | 0.0 | 0.0 | 0.00 | 0.00 | 0.00 | 87 | 1010.9 |
| 20260509074128 | 10 | 73 | 0.0 | 0.0 | 0.00 | 0.00 | 0.00 | 87 | 1010.6 |
| 20260509073627 | 10 | 71 | 0.0 | 0.0 | 0.00 | 0.00 | 0.00 | 87 | 1010.8 |
| 20260509073124 | 10 | 63 | 0.0 | 0.0 | 0.00 | 0.00 | 0.00 | 87 | 1010.9 |
| 20260509072623 | 10 | 65 | 0.0 | 0.0 | 0.00 | 0.00 | 0.00 | 86 | 1011.1 |
| 20260509072124 | 10 | 80 | 0.0 | 0.0 | 0.00 | 0.00 | 0.00 | 85 | 1011.1 |
| 20260509071624 | 10 | 76 | 0.0 | 0.0 | 0.00 | 0.00 | 0.00 | 85 | 1011.0 |
| 20260509071122 | 10 | 78 | 0.0 | 0.0 | 0.00 | 0.00 | 0.00 | 84 | 1011.1 |
| 20260509070622 | 10 | 80 | 0.0 | 0.0 | 0.00 | 0.00 | 0.00 | 84 | 1011.0 |
| 20260509070120 | 10 | 59 | 0.0 | 0.0 | 0.00 | 0.00 | 0.00 | 82 | 1011.1 |
| 20260509065618 | 11 | 76 | 0.0 | 0.0 | 0.00 | 0.00 | 0.00 | 81 | 1011.1 |
| 20260509065117 | 11 | 29 | 0.0 | 0.0 | 0.00 | 0.00 | 0.00 | 81 | 1011.1 |
| 20260509064618 | 11 | 28 | 0.0 | 0.0 | 0.00 | 0.00 | 0.00 | 81 | 1011.0 |
| 20260509064116 | 11 | 42 | 0.0 | 0.0 | 0.00 | 0.00 | 0.00 | 81 | 1011.2 |
| 20260509063848 | 11 | 55 | 0.0 | 0.0 | 0.00 | 0.00 | 0.00 | 81 | 1011.2 |
| 20260509063110 | 11 | 23 | 0.0 | 0.0 | 0.00 | 0.00 | 0.00 | 81 | 1011.3 |
| 20260509062610 | 11 | 35 | 0.0 | 0.0 | 0.00 | 0.00 | 0.00 | 81 | 1011.3 |
| 20260509062109 | 11 | 12 | 0.0 | 0.0 | 0.00 | 0.00 | 0.00 | 81 | 1011.2 |
| 20260509061610 | 11 | 9 | 0.0 | 0.0 | 0.00 | 0.00 | 0.00 | 81 | 1011.3 |
| 20260509061109 | 11 | 40 | 0.0 | 0.0 | 0.00 | 0.00 | 0.00 | 81 | 1011.2 |
| 20260509060842 | 11 | 31 | 0.0 | 0.0 | 0.00 | 0.00 | 0.00 | 82 | 1011.3 |
| 20260509060106 | 11 | 5 | 0.0 | 0.0 | 0.00 | 0.00 | 0.00 | 82 | 1011.5 |
| 20260509055604 | 11 | 5 | 0.0 | 8.0 | 0.00 | 0.00 | 0.00 | 82 | 1011.5 |
| 20260509055104 | 11 | 26 | 0.0 | 8.0 | 0.00 | 0.00 | 0.00 | 84 | 1011.4 |
| 20260509054603 | 11 | 40 | 0.0 | 0.0 | 0.00 | 0.00 | 0.00 | 83 | 1011.3 |
| 20260509054335 | 11 | 13 | 0.0 | 0.0 | 0.00 | 0.00 | 0.00 | 83 | 1011.5 |
| 20260509053603 | 11 | 20 | 0.0 | 0.0 | 0.00 | 0.00 | 0.00 | 85 | 1011.5 |
| 20260509053059 | 11 | 46 | 0.0 | 0.0 | 0.00 | 0.00 | 0.00 | 86 | 1011.5 |
| 20260509052830 | 11 | 56 | 0.0 | 0.0 | 0.00 | 0.00 | 0.00 | 86 | 1011.5 |
| 20260509052059 | 11 | 57 | 0.0 | 0.0 | 0.00 | 0.00 | 0.00 | 86 | 1011.6 |
| 20260509051604 | 11 | 55 | 0.0 | 0.0 | 0.00 | 0.00 | 0.00 | 85 | 1011.8 |
| 20260509051600 | 11 | 61 | 0.0 | 0.0 | 0.00 | 0.00 | 0.00 | 85 | 1011.8 |
| 20260509050559 | 11 | 51 | 0.0 | 0.0 | 0.00 | 0.00 | 0.00 | 85 | 1011.8 |
| 20260509050052 | 11 | 20 | 0.0 | 0.0 | 0.00 | 0.00 | 0.00 | 84 | 1011.9 |
| 20260509045550 | 11 | 15 | 0.0 | 0.0 | 0.00 | 0.00 | 0.00 | 84 | 1011.9 |
| 20260509045048 | 11 | 27 | 0.0 | 0.0 | 0.00 | 0.00 | 0.00 | 85 | 1011.7 |
| 20260509044546 | 11 | 76 | 0.0 | 0.0 | 0.00 | 0.00 | 0.00 | 85 | 1011.8 |
| 20260509044047 | 11 | 98 | 0.0 | 0.0 | 0.00 | 0.00 | 0.00 | 83 | 1011.7 |
| 20260509043540 | 11 | 74 | 0.0 | 0.0 | 0.00 | 0.00 | 0.00 | 83 | 1011.7 |
| 20260509043038 | 11 | 95 | 0.0 | 0.0 | 0.00 | 0.00 | 0.00 | 83 | 1011.8 |
| 20260509042535 | 11 | 95 | 0.0 | 0.0 | 0.00 | 0.00 | 0.00 | 81 | 1011.6 |
| 20260509042034 | 11 | 44 | 0.0 | 0.0 | 0.00 | 0.00 | 0.00 | 80 | 1011.6 |
| 20260509041535 | 12 | 355 | 0.0 | 0.0 | 0.00 | 0.00 | 0.00 | 80 | 1011.8 |
| 20260509041027 | 12 | 36 | 0.0 | 0.0 | 0.00 | 0.00 | 0.00 | 79 | 1011.8 |
| 20260509040758 | 12 | 18 | 0.0 | 0.0 | 0.00 | 0.00 | 0.00 | 79 | 1011.8 |
| 20260509040027 | 12 | 5 | 0.0 | 0.0 | 0.00 | 0.00 | 0.00 | 79 | 1011.9 |
| 20260509035526 | 12 | 340 | 0.0 | 0.0 | 0.00 | 0.00 | 0.00 | 77 | 1012.0 |
| 20260509035025 | 11 | 88 | 0.0 | 0.0 | 0.00 | 0.00 | 0.00 | 80 | 1012.1 |
| 20260509034525 | 11 | 115 | 0.0 | 0.0 | 0.00 | 0.00 | 0.00 | 82 | 1012.1 |
| 20260509034256 | 11 | 115 | 0.0 | 0.0 | 0.00 | 0.00 | 0.00 | 82 | 1012.2 |
| 20260509033524 | 11 | 144 | 0.0 | 0.0 | 0.00 | 0.00 | 0.00 | 82 | 1012.3 |
| 20260509033022 | 12 | 67 | 0.0 | 0.0 | 0.00 | 0.00 | 0.00 | 82 | 1012.2 |
| 20260509032521 | 12 | 67 | 0.0 | 0.0 | 0.00 | 0.00 | 0.00 | 80 | 1012.1 |
| 20260509032022 | 12 | 50 | 0.0 | 0.0 | 0.00 | 0.00 | 0.00 | 80 | 1012.2 |
| 20260509031520 | 12 | 72 | 0.0 | 0.0 | 0.00 | 0.00 | 0.00 | 80 | 1012.2 |
| 20260509031019 | 12 | 65 | 0.0 | 8.0 | 0.00 | 0.00 | 0.00 | 78 | 1012.4 |
| 20260509030516 | 12 | 106 | 0.0 | 8.0 | 0.00 | 0.00 | 0.00 | 78 | 1012.4 |
| 20260509030015 | 11 | 124 | 1.6 | 12.9 | 0.00 | 0.00 | 0.00 | 79 | 1012.3 |
| 20260509025514 | 11 | 126 | 1.6 | 12.9 | 0.00 | 0.00 | 0.00 | 81 | 1012.3 |
| 20260509025014 | 11 | 165 | 0.0 | 8.0 | 0.00 | 0.00 | 0.00 | 84 | 1012.3 |
| 20260509024513 | 11 | 178 | 0.0 | 0.0 | 0.00 | 0.00 | 0.00 | 85 | 1012.1 |
| 20260509024015 | 11 | 69 | 0.0 | 0.0 | 0.00 | 0.00 | 0.00 | 85 | 1011.8 |
| 20260509023508 | 11 | 65 | 0.0 | 0.0 | 0.00 | 0.00 | 0.00 | 82 | 1011.6 |
| 20260509023005 | 11 | 77 | 0.0 | 0.0 | 0.00 | 0.00 | 0.00 | 85 | 1011.9 |
| 20260509022504 | 11 | 77 | 0.0 | 0.0 | 0.00 | 0.00 | 0.00 | 84 | 1011.9 |
| 20260509022001 | 11 | 67 | 0.0 | 0.0 | 0.00 | 0.00 | 0.00 | 84 | 1011.9 |
| 20260509021500 | 11 | 76 | 0.0 | 0.0 | 0.00 | 0.00 | 0.00 | 83 | 1011.6 |
| 20260509020954 | 11 | 65 | 0.0 | 0.0 | 0.00 | 0.00 | 0.00 | 83 | 1011.8 |
| 20260509020455 | 11 | 56 | 0.0 | 0.0 | 0.00 | 0.00 | 0.00 | 82 | 1011.9 |
| 20260509015955 | 12 | 56 | 0.0 | 0.0 | 0.00 | 0.00 | 0.00 | 83 | 1011.9 |
| 20260509015723 | 12 | 0 | 0.0 | 0.0 | 0.00 | 0.00 | 0.00 | 82 | 1011.9 |
| 20260509014952 | 12 | 303 | 0.0 | 0.0 | 0.00 | 0.00 | 0.00 | 81 | 1011.9 |
| 20260509014453 | 12 | 298 | 0.0 | 0.0 | 0.00 | 0.00 | 0.00 | 76 | 1012.0 |
| 20260509013953 | 12 | 298 | 0.0 | 0.0 | 0.00 | 0.00 | 0.00 | 79 | 1012.0 |
| 20260509013449 | 12 | 298 | 0.0 | 0.0 | 0.00 | 0.00 | 0.00 | 80 | 1012.0 |
| 20260509012949 | 12 | 298 | 0.0 | 0.0 | 0.00 | 0.00 | 0.00 | 79 | 1011.9 |
| 20260509012450 | 12 | 298 | 0.0 | 0.0 | 0.00 | 0.00 | 0.00 | 78 | 1011.8 |
| 20260509011948 | 12 | 298 | 0.0 | 0.0 | 0.00 | 0.00 | 0.00 | 79 | 1011.8 |